Time;durP1;ratioP1;P1;durP2;ratioP2;P2;SDS_P1;SDS_P2;PMS_P1;PMS_P2;Temp;Humidity;BMP_temperature;BMP_pressure;BME280_temperature;BME280_humidity;BME280_pressure;Samples;Min_cycle;Max_cycle;Signal;HPM_P1;HPM_P2
2023/10/30 00:00:37;;;;;;;1.95;0.98;;;21.20;47.40;;;;;;5076207;28;20032;-57
2023/10/30 00:03:03;;;;;;;1.40;0.63;;;21.20;47.40;;;;;;5062583;28;20063;-57
2023/10/30 00:05:29;;;;;;;1.52;0.63;;;21.20;47.40;;;;;;5066442;28;20021;-58
2023/10/30 00:07:55;;;;;;;1.60;0.50;;;21.20;47.40;;;;;;5071371;28;20060;-58
2023/10/30 00:10:21;;;;;;;1.20;0.65;;;21.20;47.40;;;;;;5071486;28;20056;-57
2023/10/30 00:12:47;;;;;;;1.42;0.60;;;21.20;47.40;;;;;;5067659;28;20028;-56
2023/10/30 00:15:13;;;;;;;0.93;0.50;;;21.10;47.40;;;;;;5064654;28;20470;-58
2023/10/30 00:17:39;;;;;;;1.60;0.70;;;21.20;47.40;;;;;;5070213;28;20039;-57
2023/10/30 00:20:06;;;;;;;3.25;0.90;;;21.10;47.40;;;;;;5070243;28;20020;-59
2023/10/30 00:22:32;;;;;;;2.05;0.75;;;21.10;47.40;;;;;;5062406;28;20449;-57
2023/10/30 00:24:58;;;;;;;1.13;0.50;;;21.10;47.50;;;;;;5057484;28;20066;-58
2023/10/30 00:27:23;;;;;;;1.63;0.60;;;21.10;47.50;;;;;;5062104;28;20020;-56
2023/10/30 00:29:49;;;;;;;1.75;0.57;;;21.10;47.50;;;;;;5061504;28;20115;-55
2023/10/30 00:32:15;;;;;;;1.77;0.60;;;21.10;47.50;;;;;;5057545;28;20416;-56
2023/10/30 00:34:41;;;;;;;1.48;0.68;;;21.10;47.50;;;;;;5044576;28;20099;-57
2023/10/30 00:37:09;;;;;;;2.20;0.70;;;21.10;47.50;;;;;;5071473;28;20035;-54
2023/10/30 00:39:35;;;;;;;1.15;0.57;;;21.10;47.60;;;;;;5067590;28;20483;-55
2023/10/30 00:42:01;;;;;;;1.35;0.50;;;21.10;47.60;;;;;;5064236;28;20040;-53
2023/10/30 00:44:27;;;;;;;2.10;0.60;;;21.10;47.60;;;;;;5064448;28;20079;-57
2023/10/30 00:46:53;;;;;;;0.98;0.45;;;21.10;47.70;;;;;;5069171;28;20449;-59
2023/10/30 00:49:19;;;;;;;1.85;0.73;;;21.10;47.70;;;;;;5069951;28;20040;-56
2023/10/30 00:51:46;;;;;;;2.00;0.70;;;21.10;47.70;;;;;;5063132;28;20029;-57
2023/10/30 00:54:12;;;;;;;0.98;0.70;;;21.10;47.80;;;;;;5046570;28;20024;-58
2023/10/30 00:56:38;;;;;;;1.67;0.70;;;21.00;47.70;;;;;;5060192;28;20032;-58
2023/10/30 00:59:03;;;;;;;2.50;0.70;;;21.00;47.80;;;;;;5062493;28;20442;-59
2023/10/30 01:01:29;;;;;;;2.70;0.93;;;21.00;47.80;;;;;;5046308;28;20041;-54
2023/10/30 01:03:55;;;;;;;1.58;0.60;;;21.00;47.80;;;;;;5071099;28;20033;-56
2023/10/30 01:06:21;;;;;;;1.60;0.68;;;21.00;47.80;;;;;;5050793;28;20032;-59
2023/10/30 01:08:47;;;;;;;1.20;0.60;;;21.00;47.90;;;;;;5069110;28;20462;-56
2023/10/30 01:11:13;;;;;;;2.17;0.60;;;21.00;47.90;;;;;;5063778;28;20017;-57
2023/10/30 01:13:39;;;;;;;2.15;0.80;;;21.00;47.90;;;;;;5053733;28;20040;-58
2023/10/30 01:16:06;;;;;;;1.60;0.77;;;21.00;47.90;;;;;;5043590;28;20029;-54
2023/10/30 01:18:32;;;;;;;1.85;0.70;;;21.00;47.90;;;;;;5053278;28;20366;-57
2023/10/30 01:20:58;;;;;;;0.88;0.50;;;21.00;47.90;;;;;;5043015;28;20043;-55
2023/10/30 01:23:25;;;;;;;1.40;0.57;;;21.00;47.90;;;;;;5044806;28;20111;-57
2023/10/30 01:25:51;;;;;;;2.10;0.65;;;21.00;47.90;;;;;;5064255;28;20062;-53
2023/10/30 01:28:17;;;;;;;1.98;0.55;;;20.90;47.90;;;;;;5064826;28;20017;-56
2023/10/30 01:30:43;;;;;;;2.85;0.90;;;20.90;47.90;;;;;;5045325;28;20367;-57
2023/10/30 01:33:09;;;;;;;1.67;0.60;;;21.00;48.00;;;;;;5052178;28;20075;-55
2023/10/30 01:35:36;;;;;;;1.83;0.70;;;20.90;47.90;;;;;;5068512;28;20024;-55
2023/10/30 01:38:02;;;;;;;2.10;0.80;;;20.90;48.00;;;;;;5067504;28;20033;-58
2023/10/30 01:40:28;;;;;;;1.45;0.60;;;20.90;48.00;;;;;;5060613;28;20405;-56
2023/10/30 01:42:54;;;;;;;2.65;0.75;;;20.90;48.10;;;;;;5063219;28;20025;-56
2023/10/30 01:45:20;;;;;;;1.42;0.45;;;20.90;48.10;;;;;;5060462;28;20099;-57
2023/10/30 01:47:46;;;;;;;2.70;0.80;;;20.90;48.10;;;;;;5048810;28;20054;-55
2023/10/30 01:50:15;;;;;;;3.55;0.57;;;20.90;48.10;;;;;;5045029;28;20040;-57
2023/10/30 01:52:42;;;;;;;1.77;0.73;;;20.90;48.10;;;;;;5059017;28;20082;-56
2023/10/30 01:55:09;;;;;;;1.48;0.70;;;20.90;48.10;;;;;;5070057;28;20056;-61
2023/10/30 01:57:35;;;;;;;1.70;0.70;;;20.90;48.10;;;;;;5053820;28;20362;-57
2023/10/30 02:00:02;;;;;;;1.67;0.57;;;20.90;48.10;;;;;;5063598;28;20527;-57
2023/10/30 02:02:31;;;;;;;1.25;0.70;;;20.90;48.20;;;;;;5043039;28;20021;-58
2023/10/30 02:04:57;;;;;;;1.65;0.70;;;20.90;48.20;;;;;;5048301;28;20017;-57
2023/10/30 02:07:24;;;;;;;1.33;0.60;;;20.90;48.20;;;;;;5068307;28;20032;-58
2023/10/30 02:09:50;;;;;;;2.13;0.68;;;20.90;48.20;;;;;;5068896;28;20098;-59
2023/10/30 02:12:16;;;;;;;3.13;0.80;;;20.90;48.20;;;;;;5067939;28;20036;-59
2023/10/30 02:14:42;;;;;;;0.95;0.55;;;20.90;48.20;;;;;;5066356;28;20055;-54
2023/10/30 02:17:08;;;;;;;1.15;0.60;;;20.80;48.20;;;;;;5068673;28;20032;-57
2023/10/30 02:19:34;;;;;;;1.13;0.60;;;20.90;48.30;;;;;;5087503;28;20021;-55
2023/10/30 02:22:00;;;;;;;2.85;0.82;;;20.80;48.30;;;;;;5074173;28;20036;-52
2023/10/30 02:24:26;;;;;;;2.70;0.73;;;20.80;48.30;;;;;;5069145;28;20044;-58
2023/10/30 02:26:52;;;;;;;1.55;0.55;;;20.80;48.30;;;;;;5047523;28;20044;-54
2023/10/30 02:29:18;;;;;;;2.22;0.90;;;20.80;48.40;;;;;;5077242;28;20043;-57
2023/10/30 02:31:44;;;;;;;3.13;0.68;;;20.80;48.40;;;;;;5050860;28;20036;-56
2023/10/30 02:34:11;;;;;;;1.40;0.47;;;20.90;48.50;;;;;;5068065;28;20051;-58
2023/10/30 02:36:37;;;;;;;1.85;0.65;;;20.80;48.50;;;;;;5054483;28;20431;-53
2023/10/30 02:39:03;;;;;;;1.75;0.73;;;20.80;48.50;;;;;;5068923;28;20025;-56
2023/10/30 02:41:31;;;;;;;1.17;0.60;;;20.80;48.50;;;;;;5080519;28;20074;-58
2023/10/30 02:44:00;;;;;;;1.80;0.70;;;20.80;48.50;;;;;;5060560;28;20107;-57
2023/10/30 02:46:27;;;;;;;2.35;0.90;;;20.80;48.50;;;;;;5062566;28;20044;-58
2023/10/30 02:48:53;;;;;;;2.30;0.70;;;20.80;48.50;;;;;;5052530;28;20511;-59
2023/10/30 02:51:19;;;;;;;1.35;0.57;;;20.80;48.50;;;;;;5066959;28;20024;-56
2023/10/30 02:53:45;;;;;;;2.15;0.80;;;20.80;48.60;;;;;;5047671;28;20043;-58
2023/10/30 02:56:11;;;;;;;1.80;0.75;;;20.80;48.60;;;;;;5066476;28;20527;-55
2023/10/30 02:58:37;;;;;;;1.40;0.60;;;20.80;48.60;;;;;;5068042;28;20024;-54
2023/10/30 03:01:03;;;;;;;2.58;0.73;;;20.80;48.60;;;;;;5068639;28;20036;-55
2023/10/30 03:03:29;;;;;;;1.67;0.80;;;20.80;48.70;;;;;;5069127;28;20064;-56
2023/10/30 03:05:56;;;;;;;1.10;0.60;;;20.80;48.60;;;;;;5069450;28;20448;-56
2023/10/30 03:08:25;;;;;;;1.75;0.73;;;20.80;48.70;;;;;;5080201;28;20035;-55
2023/10/30 03:10:51;;;;;;;1.67;0.80;;;20.70;48.70;;;;;;5050845;28;20024;-56
2023/10/30 03:13:17;;;;;;;1.60;0.60;;;20.70;48.70;;;;;;5059088;28;20111;-59
2023/10/30 03:15:46;;;;;;;2.50;0.80;;;20.70;48.70;;;;;;5051001;28;20388;-57
2023/10/30 03:18:12;;;;;;;3.90;1.00;;;20.80;48.70;;;;;;5054842;28;20035;-59
2023/10/30 03:20:38;;;;;;;1.73;0.80;;;20.70;48.70;;;;;;5066909;28;20119;-58
2023/10/30 03:23:05;;;;;;;2.00;0.60;;;20.70;48.80;;;;;;5057304;28;20039;-54
2023/10/30 03:25:31;;;;;;;1.35;0.68;;;20.70;48.70;;;;;;5058718;28;20115;-53
2023/10/30 03:27:57;;;;;;;2.03;0.80;;;20.70;48.70;;;;;;5050317;28;20308;-56
2023/10/30 03:30:23;;;;;;;1.75;0.73;;;20.70;48.70;;;;;;5071886;28;20035;-59
2023/10/30 03:32:49;;;;;;;2.35;0.75;;;20.70;48.70;;;;;;5074758;28;20025;-55
2023/10/30 03:35:15;;;;;;;1.88;0.60;;;20.70;48.70;;;;;;5062891;28;20120;-55
2023/10/30 03:37:41;;;;;;;1.15;0.57;;;20.70;48.70;;;;;;5047094;28;20037;-59
2023/10/30 03:40:10;;;;;;;1.42;0.77;;;20.70;48.70;;;;;;5064179;28;20040;-57
2023/10/30 03:42:35;;;;;;;1.08;0.60;;;20.70;48.70;;;;;;5068592;28;20035;-58
2023/10/30 03:45:01;;;;;;;2.13;0.60;;;20.70;48.80;;;;;;5068237;28;20431;-56
2023/10/30 03:47:27;;;;;;;1.40;0.50;;;20.70;48.80;;;;;;5063776;28;20067;-56
2023/10/30 03:49:53;;;;;;;1.10;0.50;;;20.70;48.80;;;;;;5060094;28;20043;-58
2023/10/30 03:52:19;;;;;;;2.35;0.70;;;20.70;48.80;;;;;;5052354;28;20052;-58
2023/10/30 03:54:45;;;;;;;1.40;0.65;;;20.70;48.80;;;;;;5041326;28;20148;-59
2023/10/30 03:57:11;;;;;;;1.95;0.90;;;20.70;48.80;;;;;;5064954;28;20098;-56
2023/10/30 03:59:37;;;;;;;1.75;0.55;;;20.70;48.80;;;;;;5062532;28;20066;-59
2023/10/30 04:02:03;;;;;;;2.13;0.70;;;20.70;48.80;;;;;;5070245;28;20039;-58
2023/10/30 04:04:29;;;;;;;1.23;0.70;;;20.70;48.80;;;;;;5064553;28;20444;-57
2023/10/30 04:06:55;;;;;;;1.98;0.68;;;20.60;48.70;;;;;;5066117;28;20035;-59
2023/10/30 04:09:21;;;;;;;2.72;0.82;;;20.70;48.80;;;;;;5070138;28;20431;-56
2023/10/30 04:11:47;;;;;;;2.13;0.60;;;20.70;48.80;;;;;;5065771;28;20067;-55
2023/10/30 04:14:13;;;;;;;2.28;0.80;;;20.60;49.40;;;;;;5065295;28;20024;-57
2023/10/30 04:16:39;;;;;;;2.80;0.60;;;20.70;48.80;;;;;;5067841;28;20024;-57
2023/10/30 04:19:05;;;;;;;1.38;0.47;;;20.70;48.80;;;;;;5069715;28;20020;-56
2023/10/30 04:21:33;;;;;;;2.15;0.40;;;20.60;48.80;;;;;;5070285;28;20123;-57
2023/10/30 04:23:59;;;;;;;2.38;0.60;;;20.70;48.80;;;;;;5062362;28;20337;-55
2023/10/30 04:26:25;;;;;;;1.92;0.50;;;20.60;48.80;;;;;;5066490;28;20035;-57
2023/10/30 04:28:51;;;;;;;0.98;0.50;;;20.70;48.80;;;;;;5063630;28;20376;-53
2023/10/30 04:31:17;;;;;;;2.22;0.70;;;20.60;48.80;;;;;;5064790;28;20059;-57
2023/10/30 04:33:43;;;;;;;1.40;0.50;;;20.60;48.80;;;;;;5062880;28;20037;-55
2023/10/30 04:36:09;;;;;;;2.63;0.70;;;20.60;48.80;;;;;;5066596;28;20035;-58
2023/10/30 04:38:36;;;;;;;1.60;0.60;;;20.60;48.80;;;;;;5061174;28;20428;-53
2023/10/30 04:41:05;;;;;;;1.23;0.50;;;20.60;48.90;;;;;;5061927;28;20084;-54
2023/10/30 04:43:32;;;;;;;2.28;0.65;;;20.60;48.90;;;;;;5048317;28;20437;-52
2023/10/30 04:45:58;;;;;;;1.48;0.80;;;20.60;48.90;;;;;;5063523;28;20103;-57
2023/10/30 04:48:24;;;;;;;1.35;0.55;;;20.60;48.90;;;;;;5061819;28;20479;-56
2023/10/30 04:50:50;;;;;;;1.67;0.60;;;20.60;48.90;;;;;;5060310;28;20340;-58
2023/10/30 04:53:18;;;;;;;1.05;0.40;;;20.60;49.00;;;;;;5061385;28;20021;-57
2023/10/30 04:55:48;;;;;;;1.73;0.50;;;20.60;49.00;;;;;;5067361;28;20036;-57
2023/10/30 04:58:14;;;;;;;0.90;0.60;;;20.60;49.00;;;;;;5072410;28;20415;-57
2023/10/30 05:00:42;;;;;;;2.33;0.70;;;20.60;49.00;;;;;;5058742;28;20032;-56
2023/10/30 05:03:11;;;;;;;1.60;0.63;;;20.60;49.00;;;;;;5065817;28;20043;-56
2023/10/30 05:05:37;;;;;;;1.80;0.70;;;20.50;49.00;;;;;;5070797;28;20028;-57
2023/10/30 05:08:03;;;;;;;1.58;0.70;;;20.60;49.00;;;;;;5049004;28;20033;-58
2023/10/30 05:10:29;;;;;;;1.40;0.63;;;20.60;49.10;;;;;;5065184;28;20047;-60
2023/10/30 05:12:55;;;;;;;2.55;0.80;;;20.60;49.10;;;;;;5069129;28;20032;-56
2023/10/30 05:15:23;;;;;;;1.40;0.60;;;20.50;49.10;;;;;;5066861;28;20475;-57
2023/10/30 05:17:49;;;;;;;2.53;0.50;;;20.50;49.10;;;;;;5064300;28;20028;-56
2023/10/30 05:20:15;;;;;;;1.88;0.60;;;20.50;49.10;;;;;;5053457;28;20102;-56
2023/10/30 05:22:44;;;;;;;2.58;0.50;;;20.50;49.10;;;;;;5069020;28;20032;-56
2023/10/30 05:25:10;;;;;;;0.93;0.38;;;20.50;49.10;;;;;;5067084;28;20034;-58
2023/10/30 05:27:36;;;;;;;1.92;0.77;;;20.50;49.10;;;;;;5063680;28;20351;-57
2023/10/30 05:30:02;;;;;;;1.60;0.88;;;20.50;49.10;;;;;;5046505;28;20332;-54
2023/10/30 05:32:28;;;;;;;1.35;0.52;;;20.50;49.20;;;;;;5062395;28;20384;-58
2023/10/30 05:34:54;;;;;;;1.52;0.52;;;20.50;49.20;;;;;;5064531;28;20076;-56
2023/10/30 05:37:21;;;;;;;2.05;0.65;;;20.50;49.20;;;;;;5065883;28;20035;-56
2023/10/30 05:39:48;;;;;;;2.83;0.90;;;20.50;49.20;;;;;;5074662;28;20457;-56
2023/10/30 05:42:14;;;;;;;1.80;0.43;;;20.50;49.20;;;;;;5071051;28;20063;-58
2023/10/30 05:44:40;;;;;;;1.15;0.60;;;20.50;49.30;;;;;;5069609;28;20036;-54
2023/10/30 05:47:06;;;;;;;1.77;0.65;;;20.50;49.30;;;;;;5068898;28;20036;-56
2023/10/30 05:49:32;;;;;;;2.60;0.88;;;20.50;49.30;;;;;;5063356;28;20032;-57
2023/10/30 05:52:01;;;;;;;1.17;0.60;;;20.50;49.30;;;;;;5064014;28;20160;-55
2023/10/30 05:54:27;;;;;;;2.83;0.80;;;20.50;49.30;;;;;;5058955;28;20437;-57
2023/10/30 05:56:52;;;;;;;1.80;0.68;;;20.50;49.30;;;;;;5077592;28;20087;-57
2023/10/30 05:59:18;;;;;;;1.15;0.70;;;20.50;49.50;;;;;;5064334;28;20032;-57
2023/10/30 06:01:44;;;;;;;1.35;0.60;;;20.50;49.40;;;;;;5076674;28;20854;-58
2023/10/30 06:04:10;;;;;;;2.92;0.80;;;20.50;49.50;;;;;;5075873;28;20032;-57
2023/10/30 06:06:36;;;;;;;2.13;0.80;;;20.50;49.40;;;;;;5079083;28;21466;-57
2023/10/30 06:09:03;;;;;;;1.05;0.47;;;20.40;49.40;;;;;;5078915;28;20355;-58
2023/10/30 06:11:28;;;;;;;1.10;0.57;;;20.40;49.40;;;;;;5087163;28;20402;-53
2023/10/30 06:13:54;;;;;;;2.05;0.65;;;20.40;49.40;;;;;;5086724;28;20111;-54
2023/10/30 06:16:21;;;;;;;1.13;0.47;;;20.50;49.50;;;;;;5083961;28;20602;-57
2023/10/30 06:18:47;;;;;;;1.92;0.65;;;20.40;49.40;;;;;;5075322;28;20032;-52
2023/10/30 06:21:19;;;;;;;0.90;0.40;;;20.40;49.40;;;;;;5087528;28;20477;-55
2023/10/30 06:23:45;;;;;;;1.42;0.70;;;20.40;49.40;;;;;;5075815;28;20179;-57
2023/10/30 06:26:12;;;;;;;0.55;0.35;;;20.40;49.50;;;;;;5070494;28;20131;-57
2023/10/30 06:28:39;;;;;;;1.63;0.50;;;20.40;49.50;;;;;;5078866;28;20362;-56
2023/10/30 06:31:14;;;;;;;2.65;0.70;;;20.40;49.50;;;;;;5069167;28;20028;-53
2023/10/30 06:33:40;;;;;;;2.22;0.82;;;20.40;49.50;;;;;;5081971;28;20495;-58
2023/10/30 06:36:06;;;;;;;1.38;0.60;;;20.40;49.50;;;;;;5068283;28;20107;-55
2023/10/30 06:38:33;;;;;;;2.33;0.80;;;20.40;49.50;;;;;;5082571;28;20115;-57
2023/10/30 06:41:00;;;;;;;1.05;0.70;;;20.40;49.50;;;;;;5085306;28;20036;-58
2023/10/30 06:43:25;;;;;;;2.22;0.70;;;20.40;49.50;;;;;;5083575;28;20118;-54
2023/10/30 06:46:01;;;;;;;1.58;0.82;;;20.40;49.50;;;;;;5087016;28;20028;-57
2023/10/30 06:48:27;;;;;;;2.22;1.00;;;20.40;49.50;;;;;;5079237;28;20035;-57
2023/10/30 06:50:55;;;;;;;1.48;0.52;;;20.40;49.60;;;;;;5084016;28;20144;-55
2023/10/30 06:53:24;;;;;;;1.63;0.60;;;20.40;49.60;;;;;;5081831;28;20024;-58
2023/10/30 06:55:50;;;;;;;2.10;0.52;;;20.40;49.60;;;;;;5083086;28;20028;-55
2023/10/30 06:58:23;;;;;;;1.38;0.60;;;20.40;49.60;;;;;;5083297;28;20035;-52
2023/10/30 07:00:49;;;;;;;1.65;0.77;;;20.40;49.60;;;;;;5082375;28;20094;-58
2023/10/30 07:03:15;;;;;;;1.33;0.55;;;20.40;49.60;;;;;;5082421;28;20016;-57
2023/10/30 07:05:44;;;;;;;1.35;0.45;;;20.40;49.70;;;;;;5085800;28;20120;-58
2023/10/30 07:08:10;;;;;;;1.58;0.47;;;20.40;49.70;;;;;;5070747;28;20047;-53
2023/10/30 07:10:36;;;;;;;2.03;0.80;;;20.40;49.70;;;;;;5077753;28;20043;-54
2023/10/30 07:13:02;;;;;;;1.42;0.50;;;20.40;49.70;;;;;;5071999;28;20111;-55
2023/10/30 07:15:28;;;;;;;1.98;0.70;;;20.40;49.70;;;;;;5072147;28;20024;-58
2023/10/30 07:17:57;;;;;;;1.50;0.52;;;20.40;49.70;;;;;;5073432;28;20029;-55
2023/10/30 07:20:23;;;;;;;3.00;0.80;;;20.40;49.70;;;;;;5074068;28;20111;-58
2023/10/30 07:22:49;;;;;;;1.48;0.50;;;20.40;49.70;;;;;;5078689;28;20516;-58
2023/10/30 07:25:15;;;;;;;2.25;0.73;;;20.40;49.70;;;;;;5070244;28;20036;-58
2023/10/30 07:27:41;;;;;;;1.80;0.70;;;20.40;49.80;;;;;;5075231;28;20161;-53
2023/10/30 07:30:10;;;;;;;2.13;0.52;;;20.40;49.80;;;;;;5075466;28;20104;-56
2023/10/30 07:32:36;;;;;;;3.95;0.73;;;20.40;49.80;;;;;;5079082;28;20028;-56
2023/10/30 07:35:02;;;;;;;1.98;0.70;;;20.40;49.80;;;;;;5080960;28;20059;-56
2023/10/30 07:37:28;;;;;;;3.25;0.90;;;20.40;49.90;;;;;;5075403;28;20091;-57
2023/10/30 07:39:54;;;;;;;2.13;1.00;;;20.40;49.80;;;;;;5078311;28;20126;-56
2023/10/30 07:42:20;;;;;;;2.35;0.90;;;20.40;49.90;;;;;;5071675;28;20044;-62
2023/10/30 07:44:48;;;;;;;1.65;0.85;;;20.40;49.90;;;;;;5056300;28;20501;-57
2023/10/30 07:47:14;;;;;;;2.53;0.80;;;20.40;49.90;;;;;;5070607;28;20333;-55
2023/10/30 07:49:39;;;;;;;1.48;0.70;;;20.40;50.00;;;;;;5071819;28;20035;-55
2023/10/30 07:52:06;;;;;;;2.50;0.65;;;20.40;50.00;;;;;;5071627;28;20444;-57
2023/10/30 07:54:32;;;;;;;2.88;0.57;;;20.40;50.00;;;;;;5075200;28;20033;-58
2023/10/30 07:56:58;;;;;;;1.20;0.60;;;20.40;50.00;;;;;;5075383;28;20462;-57
2023/10/30 07:59:24;;;;;;;2.38;0.70;;;20.40;50.00;;;;;;5072530;28;20036;-58
2023/10/30 08:01:51;;;;;;;1.25;0.50;;;20.40;50.00;;;;;;5075341;28;20050;-56
2023/10/30 08:04:16;;;;;;;1.80;0.80;;;20.40;50.00;;;;;;5076477;28;20036;-57
2023/10/30 08:06:42;;;;;;;3.95;0.73;;;20.40;50.10;;;;;;5075664;28;20070;-57
2023/10/30 08:09:12;;;;;;;1.77;0.70;;;20.40;50.10;;;;;;5077823;28;20040;-55
2023/10/30 08:11:38;;;;;;;1.30;0.70;;;20.40;50.10;;;;;;5086455;28;20024;-59
2023/10/30 08:14:04;;;;;;;1.58;0.77;;;20.40;50.10;;;;;;5076646;28;20024;-56
2023/10/30 08:16:29;;;;;;;1.27;0.50;;;20.40;50.10;;;;;;5076104;28;20035;-59
2023/10/30 08:18:55;;;;;;;1.55;0.60;;;20.40;50.20;;;;;;5073457;28;20092;-60
2023/10/30 08:21:21;;;;;;;2.15;0.63;;;20.40;50.20;;;;;;5072240;28;20036;-56
2023/10/30 08:23:47;;;;;;;1.33;0.60;;;20.40;50.20;;;;;;5077052;28;20144;-55
2023/10/30 08:26:13;;;;;;;3.15;0.80;;;20.40;50.30;;;;;;5082750;28;20032;-58
2023/10/30 08:28:39;;;;;;;1.90;0.60;;;20.40;50.30;;;;;;5089255;28;20020;-60
2023/10/30 08:31:04;;;;;;;2.65;0.93;;;20.40;50.30;;;;;;5083642;28;20028;-57
2023/10/30 08:33:30;;;;;;;2.60;0.88;;;20.40;50.30;;;;;;5068451;28;20052;-53
2023/10/30 08:35:56;;;;;;;2.03;0.70;;;20.40;50.40;;;;;;5072431;28;20039;-58
2023/10/30 08:38:22;;;;;;;1.90;0.90;;;20.40;50.40;;;;;;5075267;28;20467;-56
2023/10/30 08:40:48;;;;;;;1.33;0.50;;;20.40;50.40;;;;;;5086017;28;20046;-52
2023/10/30 08:43:14;;;;;;;1.92;0.73;;;20.40;50.40;;;;;;5079322;28;20024;-57
2023/10/30 08:45:41;;;;;;;1.80;0.80;;;20.50;50.50;;;;;;5071043;28;20115;-57
2023/10/30 08:48:07;;;;;;;2.20;0.73;;;20.40;50.50;;;;;;5076237;28;20633;-57
2023/10/30 08:50:32;;;;;;;2.55;0.60;;;20.40;50.50;;;;;;5073716;28;20111;-52
2023/10/30 08:52:58;;;;;;;3.05;0.82;;;20.50;50.50;;;;;;5079898;28;20351;-57
2023/10/30 08:55:24;;;;;;;2.03;0.93;;;20.50;50.50;;;;;;5078255;28;20054;-58
2023/10/30 08:57:50;;;;;;;2.28;0.70;;;20.50;50.50;;;;;;5073641;28;20046;-57
2023/10/30 09:00:16;;;;;;;1.60;0.60;;;20.50;50.60;;;;;;5052427;28;20032;-55
2023/10/30 09:02:43;;;;;;;1.75;0.73;;;20.50;50.60;;;;;;5069868;28;20063;-53
2023/10/30 09:05:09;;;;;;;1.58;0.77;;;20.50;50.60;;;;;;5072869;28;20039;-55
2023/10/30 09:07:35;;;;;;;2.72;0.80;;;20.50;50.60;;;;;;5074228;28;20041;-56
2023/10/30 09:10:00;;;;;;;1.30;0.60;;;20.40;50.50;;;;;;5069605;28;20098;-54
2023/10/30 09:12:26;;;;;;;2.08;0.80;;;20.50;50.60;;;;;;5074186;28;20063;-58
2023/10/30 09:14:52;;;;;;;2.95;1.00;;;20.50;50.60;;;;;;5071381;28;20031;-54
2023/10/30 09:17:19;;;;;;;2.78;1.10;;;20.50;50.60;;;;;;5074647;28;20210;-59
2023/10/30 09:19:44;;;;;;;2.95;1.00;;;20.50;50.60;;;;;;5056347;28;20051;-58
2023/10/30 09:22:10;;;;;;;1.60;0.60;;;20.40;50.60;;;;;;5087384;28;20467;-58
2023/10/30 09:24:36;;;;;;;1.55;0.80;;;20.50;50.70;;;;;;5091182;28;20044;-56
2023/10/30 09:27:03;;;;;;;1.60;0.73;;;20.50;50.70;;;;;;5092782;28;20028;-53
2023/10/30 09:29:28;;;;;;;1.50;0.70;;;20.50;50.70;;;;;;5091470;28;20024;-57
2023/10/30 09:31:55;;;;;;;1.98;0.70;;;20.50;50.70;;;;;;5087542;28;20028;-56
2023/10/30 09:34:21;;;;;;;1.17;0.60;;;20.50;50.70;;;;;;5087211;28;20055;-56
2023/10/30 09:36:47;;;;;;;2.92;0.80;;;20.50;50.70;;;;;;5087688;28;20036;-55
2023/10/30 09:39:13;;;;;;;2.22;0.70;;;20.50;50.70;;;;;;5091977;28;20121;-56
2023/10/30 09:41:45;;;;;;;2.97;0.70;;;20.50;50.70;;;;;;5088987;28;20488;-58
2023/10/30 09:44:11;;;;;;;1.63;0.63;;;20.50;50.70;;;;;;5089142;28;20032;-56
2023/10/30 09:46:40;;;;;;;1.73;0.80;;;20.50;50.70;;;;;;5087840;28;20040;-54
2023/10/30 09:49:09;;;;;;;3.08;0.90;;;20.60;50.80;;;;;;5091444;28;20042;-57
2023/10/30 09:51:37;;;;;;;2.13;0.70;;;20.50;50.70;;;;;;5089408;28;20418;-57
2023/10/30 09:54:04;;;;;;;2.38;0.85;;;20.50;50.70;;;;;;5091985;28;20089;-58
2023/10/30 09:56:31;;;;;;;2.53;0.80;;;20.50;50.70;;;;;;5090109;28;20093;-57
2023/10/30 09:58:59;;;;;;;2.40;0.88;;;20.60;50.80;;;;;;5088874;28;21109;-59
2023/10/30 10:01:26;;;;;;;2.53;0.70;;;20.60;50.80;;;;;;5083345;28;20044;-55
2023/10/30 10:03:52;;;;;;;2.78;0.80;;;20.60;50.80;;;;;;5091232;28;20473;-55
2023/10/30 10:06:18;;;;;;;1.67;0.57;;;20.60;50.80;;;;;;5088177;28;20024;-56
2023/10/30 10:08:46;;;;;;;3.22;0.73;;;20.60;50.80;;;;;;5079492;28;20024;-56
2023/10/30 10:11:11;;;;;;;2.50;0.60;;;20.60;50.80;;;;;;5089336;28;20036;-58
2023/10/30 10:13:38;;;;;;;0.90;0.43;;;20.60;50.80;;;;;;5091586;28;20024;-53
2023/10/30 10:16:04;;;;;;;1.92;0.70;;;20.60;50.80;;;;;;5072600;28;20159;-55
2023/10/30 10:18:34;;;;;;;4.05;0.95;;;20.60;50.80;;;;;;5080422;28;20077;-55
2023/10/30 10:21:02;;;;;;;2.40;0.75;;;20.60;50.80;;;;;;5086641;28;20039;-54
2023/10/30 10:23:33;;;;;;;2.30;0.95;;;20.60;50.80;;;;;;5091220;28;20089;-55
2023/10/30 10:26:00;;;;;;;3.72;0.77;;;20.60;50.80;;;;;;5082184;28;20047;-59
2023/10/30 10:28:26;;;;;;;3.10;0.80;;;20.60;50.80;;;;;;5087525;28;20028;-55
2023/10/30 10:30:53;;;;;;;2.13;0.70;;;20.60;50.80;;;;;;5070165;28;20028;-58
2023/10/30 10:33:27;;;;;;;2.33;0.75;;;20.60;50.80;;;;;;5072872;28;20032;-55
2023/10/30 10:36:04;;;;;;;2.50;0.80;;;20.60;50.80;;;;;;5089775;28;20410;-57
2023/10/30 10:38:31;;;;;;;1.75;0.82;;;20.60;50.80;;;;;;5090722;28;20028;-56
2023/10/30 10:40:57;;;;;;;3.40;0.80;;;20.60;50.80;;;;;;5088787;28;20032;-53
2023/10/30 10:43:28;;;;;;;2.20;0.80;;;20.60;50.90;;;;;;5087607;28;20124;-56
2023/10/30 10:45:56;;;;;;;2.90;0.68;;;20.60;50.80;;;;;;5088840;28;20463;-57
2023/10/30 10:48:24;;;;;;;1.40;0.60;;;20.70;50.90;;;;;;5087701;28;20367;-57
2023/10/30 10:50:50;;;;;;;1.73;0.80;;;20.60;50.90;;;;;;5087426;28;20043;-56
2023/10/30 10:53:20;;;;;;;2.55;0.70;;;20.60;50.90;;;;;;5088889;28;20064;-57
2023/10/30 10:55:48;;;;;;;2.05;0.75;;;20.70;51.20;;;;;;5090880;28;20028;-56
2023/10/30 10:58:17;;;;;;;2.72;1.00;;;20.70;50.90;;;;;;5085416;28;20067;-56
2023/10/30 11:00:51;;;;;;;2.33;0.70;;;20.70;51.00;;;;;;5089571;28;20059;-58
2023/10/30 11:03:18;;;;;;;1.95;0.75;;;20.60;50.90;;;;;;5070772;28;20028;-54
2023/10/30 11:05:46;;;;;;;1.67;0.70;;;20.70;51.00;;;;;;5089999;28;20089;-53
2023/10/30 11:08:50;;;;;;;0.90;0.55;;;20.60;50.90;;;;;;5078795;28;20134;-56
2023/10/30 11:11:22;;;;;;;1.77;0.75;;;20.60;50.90;;;;;;5065482;28;20093;-55
2023/10/30 11:14:08;;;;;;;1.83;0.55;;;20.70;51.00;;;;;;5090200;28;20074;-56
2023/10/30 11:16:56;;;;;;;1.48;0.50;;;20.60;51.00;;;;;;5087595;28;20039;-53
2023/10/30 11:19:22;;;;;;;1.60;0.70;;;20.70;51.00;;;;;;5082400;28;20291;-57
2023/10/30 11:21:49;;;;;;;1.50;0.60;;;20.70;51.00;;;;;;5068951;28;20465;-59
2023/10/30 11:24:39;;;;;;;1.10;0.55;;;20.60;51.00;;;;;;5084370;28;20070;-57
2023/10/30 11:27:25;;;;;;;2.55;0.80;;;20.60;51.00;;;;;;5084262;28;20023;-57
2023/10/30 11:30:03;;;;;;;1.38;0.57;;;20.70;51.00;;;;;;5085260;28;20509;-57
2023/10/30 11:32:53;;;;;;;1.98;0.60;;;20.60;51.00;;;;;;5084334;28;20043;-54
2023/10/30 11:35:21;;;;;;;3.25;0.98;;;20.60;51.00;;;;;;5075000;28;20092;-56
2023/10/30 11:37:47;;;;;;;1.33;0.50;;;20.70;51.10;;;;;;5080186;28;20082;-55
2023/10/30 11:40:15;;;;;;;1.83;0.60;;;20.70;51.10;;;;;;5089899;28;20435;-55
2023/10/30 11:42:43;;;;;;;2.97;0.80;;;20.70;51.10;;;;;;5081596;28;20253;-56
2023/10/30 11:45:22;;;;;;;0.88;0.50;;;20.70;51.10;;;;;;5087095;28;20152;-55
2023/10/30 11:47:57;;;;;;;2.05;0.73;;;20.70;51.10;;;;;;5084111;28;20020;-57
2023/10/30 11:50:28;;;;;;;1.45;0.65;;;20.70;51.10;;;;;;5073533;28;20035;-58
2023/10/30 11:52:57;;;;;;;2.50;0.57;;;20.70;51.10;;;;;;5073132;28;20302;-54
2023/10/30 11:55:23;;;;;;;2.05;0.80;;;20.70;51.10;;;;;;5074397;28;20459;-58
2023/10/30 11:57:49;;;;;;;1.77;0.50;;;20.70;51.20;;;;;;5074291;28;20059;-59
2023/10/30 12:00:15;;;;;;;1.20;0.40;;;20.70;51.20;;;;;;5071722;28;20078;-59
2023/10/30 12:02:43;;;;;;;3.38;0.50;;;20.70;51.20;;;;;;5083052;28;20405;-56
2023/10/30 12:05:11;;;;;;;1.02;0.47;;;20.70;51.20;;;;;;5088510;28;20032;-55
2023/10/30 12:07:38;;;;;;;1.67;0.60;;;20.70;51.20;;;;;;5078546;28;20120;-58
2023/10/30 12:10:04;;;;;;;1.85;0.73;;;20.80;51.30;;;;;;5087410;28;20047;-58
2023/10/30 12:12:31;;;;;;;1.75;0.60;;;20.70;51.20;;;;;;5086457;28;20111;-54
2023/10/30 12:14:58;;;;;;;1.55;0.70;;;20.70;51.30;;;;;;5089620;28;20024;-54
2023/10/30 12:17:25;;;;;;;1.58;0.40;;;20.70;51.30;;;;;;5078457;28;20047;-56
2023/10/30 12:19:51;;;;;;;2.83;0.80;;;20.70;51.30;;;;;;5076796;28;20037;-56
2023/10/30 12:22:17;;;;;;;1.80;0.60;;;20.70;51.40;;;;;;5081333;28;20032;-59
2023/10/30 12:24:43;;;;;;;1.60;0.60;;;20.80;51.40;;;;;;5073667;28;20032;-59
2023/10/30 12:27:17;;;;;;;1.38;0.60;;;20.70;51.50;;;;;;5070028;28;20047;-52
2023/10/30 12:29:43;;;;;;;1.17;0.57;;;20.70;51.50;;;;;;5057498;28;20024;-55
2023/10/30 12:32:09;;;;;;;2.35;0.80;;;20.80;51.60;;;;;;5070049;28;20336;-55
2023/10/30 12:34:36;;;;;;;2.15;0.73;;;20.70;51.60;;;;;;5075965;28;20044;-57
2023/10/30 12:37:23;;;;;;;0.85;0.50;;;20.70;51.60;;;;;;5078298;28;20103;-55
2023/10/30 12:40:10;;;;;;;1.10;0.50;;;20.70;51.60;;;;;;5072508;28;20079;-58
2023/10/30 12:42:43;;;;;;;1.50;0.60;;;20.80;51.70;;;;;;5079395;28;20456;-56
2023/10/30 12:45:14;;;;;;;0.73;0.40;;;20.70;51.80;;;;;;5073340;28;20056;-58
2023/10/30 12:47:42;;;;;;;1.25;0.65;;;20.70;51.80;;;;;;5074359;28;20537;-55